SAS42 ENTC-ENSB
Flight info
| Callsign | SAS42 |
|---|---|
| Flight time | N/A |
| Altitude | 37000 |
| Route | LOMVI P600 VAVAD/N0452F390 P600 INPAR |
| Aircraft | A20N/M-SDE2E3FGHIRWXY/LB1 |
Departure
| Time | 2026-05-04 20:45 |
|---|---|
| Airport | Tromsø Airport (ENTC) |
Arrival
| Time | N/A |
|---|---|
| Airport | Svalbard Airport, Longyear (ENSB) |
| Time | Latitude | Longitude | Altitude | Speed | Heading |
|---|---|---|---|---|---|
| 2026-05-04 20:27 | 69.67979 | 18.90934 | 37 ft | 0 kts | 283° |
| 2026-05-04 20:28 | 69.67979 | 18.90935 | 37 ft | 0 kts | 283° |
| 2026-05-04 20:34 | 69.67979 | 18.90936 | 37 ft | 0 kts | 283° |
| 2026-05-04 20:37 | 69.67978 | 18.90946 | 37 ft | 3 kts | 283° |
| 2026-05-04 20:37 | 69.67972 | 18.91022 | 36 ft | 4 kts | 280° |
| 2026-05-04 20:37 | 69.67968 | 18.91098 | 34 ft | 4 kts | 275° |
| 2026-05-04 20:38 | 69.67967 | 18.91175 | 36 ft | 4 kts | 265° |
| 2026-05-04 20:38 | 69.67973 | 18.91246 | 34 ft | 4 kts | 230° |
| 2026-05-04 20:38 | 69.67984 | 18.91271 | 35 ft | 1 kts | 193° |
| 2026-05-04 20:38 | 69.67987 | 18.91272 | 38 ft | 0 kts | 193° |
| 2026-05-04 20:40 | 69.67959 | 18.91256 | 38 ft | 11 kts | 191° |
| 2026-05-04 20:40 | 69.67941 | 18.91245 | 38 ft | 0 kts | 192° |
| 2026-05-04 20:42 | 69.67934 | 18.91241 | 38 ft | 6 kts | 192° |
| 2026-05-04 20:42 | 69.67853 | 18.91186 | 38 ft | 14 kts | 194° |
| 2026-05-04 20:43 | 69.67753 | 18.91116 | 37 ft | 16 kts | 193° |
| 2026-05-04 20:43 | 69.67655 | 18.91071 | 37 ft | 12 kts | 161° |
| 2026-05-04 20:43 | 69.67625 | 18.91243 | 40 ft | 12 kts | 103° |
| 2026-05-04 20:43 | 69.67643 | 18.91432 | 43 ft | 4 kts | 18° |
| 2026-05-04 20:44 | 69.67678 | 18.91455 | 43 ft | 25 kts | 13° |
| 2026-05-04 20:44 | 69.68067 | 18.91704 | 38 ft | 90 kts | 13° |
| 2026-05-04 20:44 | 69.68050 | 18.91693 | 39 ft | 17 kts | 13° |
| 2026-05-04 20:44 | 69.68463 | 18.91973 | 32 ft | 104 kts | 13° |
| 2026-05-04 20:45 | 69.69399 | 18.92564 | 276 ft | 156 kts | 13° |
| 2026-05-04 20:45 | 69.70465 | 18.93328 | 1228 ft | 158 kts | 15° |
| 2026-05-04 20:45 | 69.71558 | 18.94106 | 2166 ft | 171 kts | 15° |
| 2026-05-04 20:45 | 69.72812 | 18.94945 | 2659 ft | 198 kts | 14° |
| 2026-05-04 20:46 | 69.74202 | 18.95863 | 3376 ft | 210 kts | 14° |
| 2026-05-04 20:46 | 69.75693 | 18.96854 | 3946 ft | 238 kts | 14° |
| 2026-05-04 20:46 | 69.77361 | 18.97966 | 4852 ft | 251 kts | 14° |
| 2026-05-04 20:46 | 69.79114 | 18.98713 | 6047 ft | 258 kts | 5° |
| 2026-05-04 20:47 | 69.80919 | 18.98917 | 7238 ft | 263 kts | 2° |
| 2026-05-04 20:47 | 69.82776 | 18.99000 | 8443 ft | 269 kts | 2° |
| 2026-05-04 20:47 | 69.84661 | 18.99072 | 9647 ft | 274 kts | 2° |
| 2026-05-04 20:47 | 69.86635 | 18.99156 | 10414 ft | 294 kts | 2° |
| 2026-05-04 20:48 | 69.88740 | 18.99255 | 11079 ft | 310 kts | 2° |
| 2026-05-04 20:48 | 69.90931 | 18.99361 | 11972 ft | 318 kts | 1° |
| 2026-05-04 20:48 | 69.92412 | 18.99432 | 12621 ft | 323 kts | 1° |
| 2026-05-04 20:48 | 69.94680 | 18.99542 | 13585 ft | 329 kts | 2° |
| 2026-05-04 20:49 | 69.96988 | 18.99654 | 14435 ft | 335 kts | 2° |
| 2026-05-04 20:49 | 69.99347 | 18.99772 | 15284 ft | 341 kts | 1° |
| 2026-05-04 20:49 | 70.01736 | 18.99891 | 16163 ft | 345 kts | 1° |
| 2026-05-04 20:49 | 70.04161 | 19.00013 | 16966 ft | 352 kts | 1° |
| 2026-05-04 20:50 | 70.06635 | 19.00089 | 17732 ft | 359 kts | 359° |
| 2026-05-04 20:50 | 70.09127 | 18.99267 | 18471 ft | 364 kts | 349° |
| 2026-05-04 20:50 | 70.11602 | 18.97533 | 19212 ft | 368 kts | 344° |
| 2026-05-04 20:50 | 70.14066 | 18.95345 | 19928 ft | 373 kts | 341° |
| 2026-05-04 20:51 | 70.16540 | 18.92917 | 20648 ft | 377 kts | 340° |
| 2026-05-04 20:51 | 70.19044 | 18.90383 | 21317 ft | 382 kts | 340° |
| 2026-05-04 20:51 | 70.21540 | 18.87862 | 22060 ft | 385 kts | 340° |
| 2026-05-04 20:51 | 70.24086 | 18.85327 | 22744 ft | 389 kts | 340° |
| 2026-05-04 20:52 | 70.26671 | 18.82790 | 23339 ft | 393 kts | 341° |
| 2026-05-04 20:52 | 70.29282 | 18.80254 | 23881 ft | 396 kts | 341° |
| 2026-05-04 20:52 | 70.31917 | 18.77708 | 24407 ft | 400 kts | 341° |
| 2026-05-04 20:52 | 70.34576 | 18.75141 | 24909 ft | 404 kts | 341° |
| 2026-05-04 20:53 | 70.37258 | 18.72548 | 25434 ft | 407 kts | 341° |
| 2026-05-04 20:53 | 70.39959 | 18.69928 | 25945 ft | 410 kts | 341° |
| 2026-05-04 20:53 | 70.42680 | 18.67281 | 26433 ft | 413 kts | 341° |
| 2026-05-04 20:53 | 70.45432 | 18.64592 | 26862 ft | 417 kts | 341° |
| 2026-05-04 20:54 | 70.48208 | 18.61871 | 27253 ft | 423 kts | 341° |
| 2026-05-04 20:54 | 70.51016 | 18.59111 | 27772 ft | 424 kts | 341° |
| 2026-05-04 20:54 | 70.53822 | 18.56344 | 28268 ft | 426 kts | 341° |
| 2026-05-04 20:54 | 70.56654 | 18.53545 | 28759 ft | 428 kts | 341° |
| 2026-05-04 20:55 | 70.59496 | 18.50725 | 29130 ft | 433 kts | 341° |
| 2026-05-04 20:55 | 70.62373 | 18.47864 | 29509 ft | 437 kts | 341° |
| 2026-05-04 20:55 | 70.65268 | 18.44976 | 29910 ft | 438 kts | 342° |
| 2026-05-04 20:55 | 70.68139 | 18.42105 | 30270 ft | 440 kts | 342° |
| 2026-05-04 20:56 | 70.71050 | 18.39186 | 30593 ft | 442 kts | 342° |
| 2026-05-04 20:56 | 70.73985 | 18.36231 | 30855 ft | 446 kts | 341° |
| 2026-05-04 20:56 | 70.76950 | 18.33237 | 31138 ft | 449 kts | 342° |
| 2026-05-04 20:56 | 70.79925 | 18.30221 | 31492 ft | 451 kts | 341° |
| 2026-05-04 20:57 | 70.82894 | 18.27203 | 31947 ft | 450 kts | 341° |
| 2026-05-04 20:57 | 70.85862 | 18.24176 | 32385 ft | 449 kts | 341° |
| 2026-05-04 20:57 | 70.88820 | 18.21149 | 32758 ft | 449 kts | 341° |
| 2026-05-04 20:57 | 70.91785 | 18.18106 | 33092 ft | 450 kts | 341° |
| 2026-05-04 20:58 | 70.94769 | 18.15031 | 33394 ft | 452 kts | 341° |
| 2026-05-04 20:58 | 70.97752 | 18.11947 | 33761 ft | 451 kts | 341° |
| 2026-05-04 20:58 | 71.00723 | 18.08865 | 34063 ft | 451 kts | 341° |
| 2026-05-04 20:58 | 71.03693 | 18.05775 | 34387 ft | 450 kts | 341° |
| 2026-05-04 20:59 | 71.06651 | 18.02688 | 34654 ft | 451 kts | 341° |
| 2026-05-04 20:59 | 71.09637 | 17.99563 | 34887 ft | 452 kts | 341° |
| 2026-05-04 20:59 | 71.12577 | 17.96478 | 35182 ft | 451 kts | 341° |
| 2026-05-04 20:59 | 71.15551 | 17.93347 | 35476 ft | 451 kts | 341° |
| 2026-05-04 21:00 | 71.18516 | 17.90215 | 35762 ft | 450 kts | 341° |
| 2026-05-04 21:00 | 71.21482 | 17.87072 | 35961 ft | 452 kts | 341° |
| 2026-05-04 21:00 | 71.24459 | 17.83908 | 36180 ft | 452 kts | 341° |
| 2026-05-04 21:00 | 71.27444 | 17.80725 | 36407 ft | 453 kts | 341° |
| 2026-05-04 21:01 | 71.30423 | 17.77537 | 36582 ft | 454 kts | 341° |
| 2026-05-04 21:01 | 71.33412 | 17.74329 | 36602 ft | 453 kts | 341° |
| 2026-05-04 21:01 | 71.39368 | 17.67903 | 36599 ft | 453 kts | 340° |
| 2026-05-04 21:02 | 71.45326 | 17.61433 | 36607 ft | 453 kts | 341° |
| 2026-05-04 21:02 | 71.46329 | 17.60339 | 36609 ft | 453 kts | 341° |